createdAt,value
2019-03-06T01:07:14.847Z,5.37
2019-03-06T01:10:14.919Z,5.50
2019-03-06T01:56:13.911Z,7.40
2019-03-06T02:05:10.684Z,8.37
2019-03-06T02:29:38.386Z,9.47
2019-03-06T02:53:09.716Z,10.57
2019-03-06T03:46:27.015Z,9.30
2019-03-06T03:48:55.641Z,9.63
2019-03-06T03:51:24.073Z,9.10
2019-03-06T03:53:52.900Z,10.00
2019-03-06T03:56:22.123Z,10.10
2019-03-06T03:58:50.523Z,9.73
2019-03-06T04:01:19.023Z,9.73
2019-03-06T04:03:47.466Z,9.40
2019-03-06T04:06:16.366Z,10.97
2019-03-06T04:08:44.799Z,9.67
2019-03-06T04:11:13.286Z,8.80
2019-03-06T04:13:41.677Z,8.90
2019-03-06T04:16:10.100Z,9.20
2019-03-06T04:18:38.503Z,9.03
2019-03-06T04:21:06.908Z,8.87
2019-03-06T04:23:35.883Z,9.43
2019-03-06T04:26:04.292Z,9.30
2019-03-06T04:28:33.123Z,9.50
2019-03-06T04:31:01.559Z,9.27
2019-03-06T04:33:31.001Z,8.37
2019-03-06T04:35:59.660Z,9.50
2019-03-06T04:38:28.111Z,10.20
2019-03-06T04:40:56.773Z,10.10
2019-03-06T04:43:25.164Z,8.77
2019-03-06T04:45:53.966Z,9.40
2019-03-06T04:48:22.383Z,11.07
2019-03-06T04:50:50.796Z,9.83
2019-03-06T04:53:19.240Z,9.53
2019-03-06T04:55:47.648Z,9.80
2019-03-06T04:58:16.287Z,11.63
2019-03-06T05:00:44.726Z,11.20
2019-03-06T05:03:13.127Z,10.80
2019-03-06T05:05:41.527Z,11.60
2019-03-06T05:08:10.294Z,11.03
2019-03-06T05:10:38.940Z,10.70
2019-03-06T05:13:07.598Z,13.30
2019-03-06T05:15:36.213Z,14.73
2019-03-06T05:18:12.047Z,13.40
2019-03-06T05:20:40.788Z,12.53
2019-03-06T05:23:09.191Z,12.87
2019-03-06T05:25:37.590Z,12.77
2019-03-06T05:28:06.297Z,12.77
2019-03-06T05:30:35.107Z,13.20
2019-03-06T05:33:16.350Z,15.07
2019-03-06T05:36:18.202Z,14.67
2019-03-06T05:38:50.016Z,14.03
2019-03-06T05:41:19.567Z,14.87
2019-03-06T05:43:48.450Z,14.37
2019-03-06T05:46:17.610Z,13.53
2019-03-06T05:48:46.397Z,14.80
2019-03-06T05:51:14.913Z,13.60
2019-03-06T05:53:44.108Z,13.00
2019-03-06T05:56:13.199Z,13.50
2019-03-06T05:58:41.870Z,12.67
2019-03-06T06:01:10.306Z,14.20
2019-03-06T06:03:39.005Z,14.33
2019-03-06T06:06:07.426Z,14.00
2019-03-06T06:08:36.289Z,12.30
2019-03-06T06:11:05.540Z,13.63
2019-03-06T06:13:37.018Z,12.53
2019-03-06T06:16:08.792Z,13.50
2019-03-06T06:18:37.565Z,13.83
2019-03-06T06:21:25.338Z,14.37
2019-03-06T06:23:55.983Z,14.93
2019-03-06T06:26:24.749Z,13.73
2019-03-06T06:28:53.863Z,13.47
2019-03-06T06:31:22.831Z,13.93
2019-03-06T06:33:51.672Z,14.10
2019-03-06T06:36:20.932Z,15.73
2019-03-06T06:38:50.393Z,15.40
2019-03-06T06:41:18.839Z,16.20
2019-03-06T06:43:51.071Z,14.37
2019-03-06T06:46:20.025Z,13.80
2019-03-06T06:48:49.421Z,15.20
2019-03-06T06:51:33.637Z,14.70
2019-03-06T06:54:11.010Z,15.80
2019-03-06T06:57:01.672Z,13.53
2019-03-06T06:59:50.887Z,13.27
2019-03-06T07:03:00.802Z,12.83
2019-03-06T07:05:31.057Z,15.20
2019-03-06T07:08:19.742Z,15.57
2019-03-06T07:10:57.814Z,17.53
2019-03-06T07:13:28.326Z,16.00
2019-03-06T07:16:15.059Z,17.60
2019-03-06T07:18:57.298Z,15.17
2019-03-06T07:21:42.806Z,16.20
2019-03-06T07:24:18.928Z,17.17
2019-03-06T07:26:49.485Z,16.80
2019-03-06T07:29:22.567Z,18.10
2019-03-06T07:32:10.842Z,17.80
2019-03-06T07:34:57.721Z,18.60
2019-03-06T07:37:33.862Z,17.33
2019-03-06T07:40:02.820Z,16.63
2019-03-06T07:42:33.123Z,14.90
2019-03-06T07:45:49.718Z,15.23
2019-03-06T07:48:25.657Z,14.40
2019-03-06T07:51:08.140Z,13.37
2019-03-06T07:53:48.216Z,14.70
2019-03-06T07:56:18.554Z,14.07
2019-03-06T07:58:54.134Z,14.13
2019-03-06T08:01:24.931Z,15.20
2019-03-06T08:04:00.143Z,15.10
2019-03-06T08:06:28.716Z,12.90
2019-03-06T08:08:57.162Z,12.67
2019-03-06T08:11:29.906Z,11.23
2019-03-06T08:14:00.201Z,9.60
2019-03-06T08:16:30.638Z,9.70
2019-03-06T08:19:12.826Z,9.60
2019-03-06T08:21:54.905Z,7.37
2019-03-06T08:24:27.887Z,8.00
2019-03-06T08:26:56.280Z,8.33
2019-03-06T08:29:24.677Z,8.00
2019-03-06T08:31:53.419Z,8.33
2019-03-06T08:34:22.989Z,7.70
2019-03-06T08:36:51.396Z,6.07
2019-03-06T08:39:21.547Z,6.23
2019-03-06T08:41:49.954Z,5.50
2019-03-06T08:44:18.439Z,5.57
2019-03-06T08:46:48.479Z,5.33
2019-03-06T08:49:18.993Z,6.17
2019-03-06T08:51:51.823Z,5.60
2019-03-06T08:54:28.744Z,5.43
2019-03-06T08:57:07.631Z,5.50
2019-03-06T08:59:54.189Z,6.60
2019-03-06T09:02:40.748Z,4.30
2019-03-06T09:05:25.055Z,4.37
2019-03-06T09:08:00.807Z,4.30
2019-03-06T09:10:31.318Z,3.13
2019-03-06T09:13:01.361Z,3.70
2019-03-06T09:15:46.532Z,5.00
2019-03-06T09:18:28.663Z,3.80
2019-03-06T09:21:13.685Z,4.43
2019-03-06T09:23:51.329Z,3.80
2019-03-06T09:26:31.057Z,4.00
2019-03-06T09:29:01.570Z,4.20
2019-03-06T09:31:33.850Z,4.63
2019-03-06T09:34:13.235Z,4.80
2019-03-06T09:36:59.269Z,4.00
2019-03-06T09:39:41.448Z,4.20
2019-03-06T09:42:27.441Z,3.67
2019-03-06T09:45:04.015Z,4.63
2019-03-06T09:47:34.121Z,3.60
2019-03-06T09:50:07.282Z,3.13
2019-03-06T09:52:55.201Z,3.43
2019-03-06T09:55:30.679Z,3.30
2019-03-06T09:58:00.996Z,3.60
2019-03-06T10:00:46.735Z,3.43
2019-03-06T10:03:26.278Z,3.23
2019-03-06T10:06:05.399Z,4.70
2019-03-06T10:08:35.452Z,3.53
2019-03-06T10:11:05.496Z,4.20
2019-03-06T10:13:41.631Z,3.70
2019-03-06T10:16:10.231Z,3.70
2019-03-06T10:18:40.497Z,3.63
2019-03-06T10:21:08.979Z,3.63
2019-03-06T10:23:37.440Z,3.50
2019-03-06T10:26:05.915Z,2.70
2019-03-06T10:28:36.595Z,2.63
2019-03-06T10:31:05.177Z,3.20
2019-03-06T10:33:33.880Z,2.80
2019-03-06T10:36:02.560Z,2.73
2019-03-06T10:38:31.332Z,2.60
2019-03-06T10:40:59.802Z,2.80
2019-03-06T10:43:28.625Z,2.63
2019-03-06T10:45:57.211Z,3.13
2019-03-06T10:48:25.687Z,2.30
2019-03-06T10:50:54.484Z,2.67
2019-03-06T10:53:23.072Z,2.67
2019-03-06T10:55:51.543Z,2.67
2019-03-06T10:58:20.019Z,3.00
2019-03-06T11:00:50.155Z,2.57
2019-03-06T11:03:18.946Z,2.77
2019-03-06T11:05:48.458Z,2.40
2019-03-06T11:08:18.273Z,2.80
2019-03-06T11:10:46.811Z,3.60
2019-03-06T11:13:15.473Z,3.30
2019-03-06T11:15:44.291Z,2.83
2019-03-06T11:18:13.139Z,2.90
2019-03-06T11:20:42.129Z,3.90
2019-03-06T11:23:11.802Z,3.40
2019-03-06T11:25:41.384Z,3.10
2019-03-06T11:28:12.343Z,2.90
2019-03-06T11:30:49.614Z,2.67
2019-03-06T11:33:19.583Z,3.13
2019-03-06T11:35:48.569Z,3.03
2019-03-06T11:38:17.524Z,3.00
2019-03-06T11:40:46.080Z,3.80
2019-03-06T11:43:14.629Z,3.10
2019-03-06T11:45:43.408Z,3.87
2019-03-06T11:48:12.557Z,3.73
2019-03-06T11:50:41.361Z,2.93
2019-03-06T11:53:10.341Z,3.27
2019-03-06T11:55:39.213Z,3.40
2019-03-06T11:58:10.818Z,3.50
2019-03-06T12:00:46.450Z,3.37
2019-03-06T12:03:18.060Z,2.83
2019-03-06T12:05:47.060Z,3.30
2019-03-06T12:08:18.324Z,3.10
2019-03-06T12:10:47.075Z,3.17
2019-03-06T12:13:17.855Z,2.80
2019-03-06T12:15:50.983Z,3.00
2019-03-06T12:18:22.502Z,2.63
2019-03-06T12:20:51.315Z,2.90
2019-03-06T12:23:20.301Z,3.17
2019-03-06T12:25:49.102Z,2.80
2019-03-06T12:28:17.703Z,2.83
2019-03-06T12:30:46.647Z,2.63
2019-03-06T12:33:22.345Z,3.00
2019-03-06T12:35:51.186Z,3.07
2019-03-06T12:38:19.915Z,3.17
2019-03-06T12:40:48.656Z,3.27
2019-03-06T12:43:17.740Z,2.80
2019-03-06T12:46:05.954Z,2.63
2019-03-06T12:48:34.488Z,3.67
2019-03-06T12:51:04.417Z,3.13
2019-03-06T12:53:33.142Z,4.00
2019-03-06T12:56:01.919Z,3.17
2019-03-06T12:58:30.354Z,3.00
2019-03-06T13:00:58.750Z,3.40
2019-03-06T13:03:27.484Z,2.57
2019-03-06T13:05:55.876Z,3.43
2019-03-06T13:08:24.300Z,3.10
2019-03-06T13:10:52.963Z,2.20
2019-03-06T13:13:21.619Z,2.33
2019-03-06T13:15:50.171Z,2.63
2019-03-06T13:18:18.658Z,3.00
2019-03-06T13:20:47.126Z,2.30
2019-03-06T13:23:15.734Z,2.43
2019-03-06T13:25:44.606Z,2.50
2019-03-06T13:28:13.046Z,2.00
2019-03-06T13:30:41.850Z,1.53
2019-03-06T13:33:23.782Z,2.93
2019-03-06T13:35:52.206Z,3.20
2019-03-06T13:38:20.687Z,2.27
2019-03-06T13:40:49.315Z,2.43
2019-03-06T13:43:17.741Z,2.40
2019-03-06T13:45:46.261Z,2.20
2019-03-06T13:48:15.468Z,1.83
2019-03-06T13:50:43.939Z,2.17
2019-03-06T13:53:20.086Z,1.73
2019-03-06T13:55:42.913Z,2.33
2019-03-06T13:58:11.450Z,1.80
2019-03-06T14:00:39.926Z,1.63
2019-03-06T14:03:09.484Z,1.57
2019-03-06T14:05:37.960Z,1.53
2019-03-06T14:08:07.557Z,1.87
2019-03-06T14:10:36.417Z,1.47
2019-03-06T14:13:05.284Z,1.63
2019-03-06T14:15:33.839Z,1.60
2019-03-06T14:18:02.523Z,1.20
2019-03-06T14:20:30.943Z,1.40
2019-03-06T14:22:59.341Z,1.00
2019-03-06T14:25:28.275Z,1.23
2019-03-06T14:27:57.805Z,1.13
2019-03-06T14:30:31.499Z,1.07
2019-03-06T14:33:00.572Z,0.90
2019-03-06T14:35:29.293Z,1.93
2019-03-06T14:37:57.741Z,1.10
2019-03-06T14:40:31.195Z,1.87
2019-03-06T14:43:01.019Z,1.40
2019-03-06T14:45:29.927Z,1.10
2019-03-06T14:47:59.156Z,1.63
2019-03-06T14:50:28.140Z,1.17
2019-03-06T14:52:56.621Z,1.63
2019-03-06T14:55:25.358Z,1.90
2019-03-06T14:57:54.079Z,1.90
2019-03-06T15:00:22.940Z,1.60
2019-03-06T15:02:51.810Z,1.40
2019-03-06T15:05:20.942Z,1.30
2019-03-06T15:07:49.604Z,1.40
2019-03-06T15:10:18.987Z,1.20
2019-03-06T15:12:47.557Z,1.53
2019-03-06T15:15:16.974Z,1.90
2019-03-06T15:17:45.579Z,1.40
2019-03-06T15:20:21.540Z,1.20
2019-03-06T15:22:51.589Z,1.40
2019-03-06T15:25:24.810Z,1.37
2019-03-06T15:27:53.310Z,1.27
2019-03-06T15:30:22.134Z,1.40
2019-03-06T15:32:50.634Z,1.43
2019-03-06T15:35:19.898Z,1.50
2019-03-06T15:37:48.360Z,1.70
2019-03-06T15:40:22.324Z,1.60
2019-03-06T15:42:51.059Z,1.47
2019-03-06T15:45:21.825Z,1.40
2019-03-06T15:47:50.464Z,1.20
2019-03-06T15:50:19.570Z,1.23
2019-03-06T15:52:48.590Z,1.50
2019-03-06T15:55:20.147Z,2.00
2019-03-06T15:57:48.928Z,1.70
2019-03-06T16:00:27.597Z,1.63
2019-03-06T16:02:57.143Z,1.60
2019-03-06T16:05:25.965Z,1.67
2019-03-06T16:07:56.966Z,1.93
2019-03-06T16:10:26.388Z,2.40
2019-03-06T16:12:55.486Z,2.13
2019-03-06T16:15:26.735Z,2.20
2019-03-06T16:17:56.753Z,1.90
2019-03-06T16:20:25.216Z,2.00
2019-03-06T16:22:54.658Z,2.17
2019-03-06T16:25:24.378Z,1.90
2019-03-06T16:27:53.285Z,1.50
2019-03-06T16:30:25.959Z,2.30
2019-03-06T16:32:54.480Z,1.90
2019-03-06T16:35:23.383Z,1.70
2019-03-06T16:37:51.855Z,2.20
2019-03-06T16:40:25.691Z,2.70
2019-03-06T16:42:54.591Z,2.30
2019-03-06T16:45:25.527Z,2.40
2019-03-06T16:47:54.222Z,2.20
2019-03-06T16:50:23.340Z,2.33
2019-03-06T16:52:52.149Z,2.07
2019-03-06T16:55:21.830Z,2.63
2019-03-06T16:57:50.368Z,2.33
2019-03-06T17:00:24.019Z,2.80
2019-03-06T17:02:52.840Z,2.10
2019-03-06T17:05:21.783Z,2.53
2019-03-06T17:07:51.201Z,2.40
2019-03-06T17:10:22.127Z,1.80
2019-03-06T17:12:51.606Z,2.17
2019-03-06T17:15:21.738Z,6.37
2019-03-06T17:17:50.874Z,3.73
2019-03-06T17:20:21.970Z,2.30
2019-03-06T17:22:50.635Z,2.00
2019-03-06T17:25:19.485Z,2.23
2019-03-06T17:27:47.991Z,2.00
2019-03-06T17:30:21.998Z,2.20
2019-03-06T17:33:04.293Z,2.10
2019-03-06T17:35:33.805Z,2.43
2019-03-06T17:38:02.989Z,1.80
2019-03-06T17:40:31.732Z,1.80
2019-03-06T17:43:00.668Z,2.07
2019-03-06T17:45:29.302Z,2.50
2019-03-06T17:47:58.069Z,2.30
2019-03-06T17:50:26.814Z,2.23
2019-03-06T17:52:55.562Z,2.10
2019-03-06T17:55:24.165Z,2.13
2019-03-06T17:57:52.596Z,1.93
2019-03-06T18:00:27.777Z,2.03
2019-03-06T18:02:57.424Z,2.53
2019-03-06T18:05:26.192Z,3.03
2019-03-06T18:07:54.735Z,2.43
2019-03-06T18:10:23.314Z,2.67
2019-03-06T18:12:53.563Z,2.60
2019-03-06T18:15:22.280Z,2.47
2019-03-06T18:17:50.705Z,3.47
2019-03-06T18:20:19.472Z,2.80
2019-03-06T18:22:48.181Z,2.93
2019-03-06T18:25:19.105Z,4.80
2019-03-06T18:27:47.630Z,3.37
2019-03-06T18:30:20.157Z,4.27
2019-03-06T18:32:48.847Z,3.80
2019-03-06T18:35:18.669Z,3.00
2019-03-06T18:37:47.160Z,3.57
2019-03-06T18:40:18.239Z,3.43
2019-03-06T18:42:46.867Z,4.63
2019-03-06T18:45:17.062Z,3.93
2019-03-06T18:47:45.889Z,4.33
2019-03-06T18:50:16.628Z,4.70
2019-03-06T18:52:45.709Z,4.97
2019-03-06T18:55:17.998Z,4.80
2019-03-06T18:57:46.580Z,4.87
2019-03-06T19:00:27.275Z,4.37
2019-03-06T19:02:55.756Z,4.03
2019-03-06T19:05:24.283Z,4.60
2019-03-06T19:07:53.723Z,3.60
2019-03-06T19:10:25.795Z,4.53
2019-03-06T19:12:55.391Z,4.70
2019-03-06T19:15:28.274Z,4.90
2019-03-06T19:17:56.805Z,4.90
2019-03-06T19:20:25.477Z,4.97
2019-03-06T19:22:54.245Z,4.40
2019-03-06T19:25:22.995Z,4.73
2019-03-06T19:27:51.877Z,4.37
2019-03-06T19:30:24.751Z,3.70
2019-03-06T19:32:53.646Z,3.80
2019-03-06T19:35:26.815Z,4.10
2019-03-06T19:37:55.602Z,3.77
2019-03-06T19:40:24.423Z,3.20
2019-03-06T19:42:53.046Z,4.27
2019-03-06T19:45:22.398Z,3.97
2019-03-06T19:47:51.340Z,4.87
2019-03-06T19:50:25.402Z,4.40
2019-03-06T19:52:54.222Z,4.43
2019-03-06T19:55:24.097Z,3.80
2019-03-06T19:58:07.061Z,4.63
2019-03-06T20:00:35.997Z,3.70
2019-03-06T20:03:07.036Z,4.40
2019-03-06T20:05:38.085Z,3.90
2019-03-06T20:08:12.591Z,4.20
2019-03-06T20:10:41.203Z,4.83
2019-03-06T20:13:10.864Z,4.70
2019-03-06T20:15:40.384Z,3.90
2019-03-06T20:18:09.103Z,5.00
2019-03-06T20:20:38.038Z,4.60
2019-03-06T20:23:06.506Z,4.10
2019-03-06T20:25:37.081Z,4.70
2019-03-06T20:28:05.382Z,3.70
2019-03-06T20:30:34.203Z,5.33
2019-03-06T20:33:02.670Z,4.70
2019-03-06T20:35:31.361Z,4.47
2019-03-06T20:38:00.363Z,4.57
2019-03-06T20:40:28.758Z,4.80
2019-03-06T20:42:57.809Z,5.27
2019-03-06T20:45:26.389Z,6.27
2019-03-06T20:47:55.058Z,5.87
2019-03-06T20:50:23.781Z,6.10
2019-03-06T20:52:53.160Z,6.20
2019-03-06T20:55:22.556Z,6.47
2019-03-06T20:57:52.946Z,5.10
2019-03-06T21:00:27.735Z,6.40
2019-03-06T21:02:56.211Z,6.33
2019-03-06T21:05:24.777Z,6.07
2019-03-06T21:07:53.545Z,6.53
2019-03-06T21:10:24.756Z,6.20
2019-03-06T21:12:53.604Z,6.20
2019-03-06T21:15:22.849Z,6.87
2019-03-06T21:17:52.468Z,7.50
2019-03-06T21:20:24.534Z,6.27
2019-03-06T21:22:53.400Z,5.47
2019-03-06T21:25:22.465Z,5.60
2019-03-06T21:27:52.559Z,6.27
2019-03-06T21:30:23.998Z,6.10
2019-03-06T21:32:52.594Z,7.20
2019-03-06T21:35:21.261Z,5.00
2019-03-06T21:37:50.423Z,5.67
2019-03-06T21:40:21.975Z,6.57
2019-03-06T21:42:50.596Z,5.73
2019-03-06T21:45:20.601Z,6.40
2019-03-06T21:47:50.346Z,6.70
2019-03-06T21:50:20.080Z,6.73
2019-03-06T21:52:49.264Z,6.90
2019-03-06T21:55:18.977Z,5.90
2019-03-06T21:57:49.631Z,7.13
2019-03-06T22:00:23.220Z,5.47
2019-03-06T22:02:54.771Z,5.70
2019-03-06T22:05:23.253Z,6.20
2019-03-06T22:07:51.928Z,6.27
2019-03-06T22:10:20.536Z,6.17
2019-03-06T22:12:49.010Z,6.27
2019-03-06T22:15:23.909Z,5.90
2019-03-06T22:17:52.634Z,6.20
2019-03-06T22:20:21.296Z,6.00
2019-03-06T22:22:50.150Z,6.40
2019-03-06T22:25:19.271Z,7.47
2019-03-06T22:27:47.725Z,6.00
2019-03-06T22:30:22.353Z,7.20
2019-03-06T22:32:51.820Z,7.23
2019-03-06T22:35:20.390Z,7.90
2019-03-06T22:37:48.829Z,7.80
2019-03-06T22:40:19.991Z,7.20
2019-03-06T22:42:48.807Z,7.07
2019-03-06T22:45:19.762Z,8.50
2019-03-06T22:47:48.382Z,10.00
2019-03-06T22:50:21.352Z,9.23
2019-03-06T22:52:50.565Z,7.80
2019-03-06T22:55:19.793Z,8.07
2019-03-06T22:57:48.368Z,7.83
2019-03-06T23:00:32.715Z,7.30
2019-03-06T23:03:01.601Z,6.73
2019-03-06T23:05:35.611Z,6.60
2019-03-06T23:08:04.281Z,7.33
2019-03-06T23:10:32.865Z,6.60
2019-03-06T23:13:01.262Z,7.30
2019-03-06T23:15:30.043Z,6.53
2019-03-06T23:17:58.744Z,7.00
2019-03-06T23:20:27.245Z,6.30
2019-03-06T23:22:55.819Z,6.30
2019-03-06T23:25:24.215Z,6.80
2019-03-06T23:27:52.635Z,7.17
2019-03-06T23:30:21.853Z,6.60
2019-03-06T23:32:50.458Z,6.80
2019-03-06T23:35:19.686Z,7.80
2019-03-06T23:37:48.366Z,7.00
2019-03-06T23:40:17.119Z,6.93
2019-03-06T23:42:47.779Z,7.03
2019-03-06T23:45:15.849Z,6.83
2019-03-06T23:47:44.279Z,7.07
2019-03-06T23:50:13.418Z,7.97
2019-03-06T23:52:55.706Z,7.30
2019-03-06T23:55:24.333Z,10.40
2019-03-06T23:57:52.783Z,7.57
